Aeroporto :
LOGIN :

Iscrizione | Disclaimer

   EN    FR    IT 

 










Sommario :    VFR   VFR Marginale   IFR   IFR Intensivo   IFR Molto Intensivo
Visibilità : 
Base nubi : 
>= 8 km
>= 3000ft
5 / 8 km
1000 / 3000 ft
1500m / 5 km
500 / 1000 ft
800 / 1500m
200 / 500 ft
< 800m
< 200 ft
Simboli :   Temporali  Nebbia  Neve Forte  Precipitazioni Forti  Vento > 20 kt
SIGMETs :   Varie  Temporali  Ghiacco  Turbolenza  Onda orograficha  Ceneri Vulcaniche






- Altitudine del aeroporto : -11 ft
- Codice IATA : AMS


EHAM - Amsterdam Schiphol

ULTIMO METAR :
  • 121255Z 18013KT 9999 -SHRA FEW020CB SCT032 SCT042 05/03 Q0997 TEMPO 7000

METARs OBSOLETI :
  • 121225Z 21013KT 180V240 9999 -SHRA FEW015 FEW024CB BKN040 05/03 Q0997 TEMPO 9999
  • 121155Z 19013KT 160V220 9999 FEW010 SCT030 05/03 Q0997 TEMPO 6000 -SHRA SCT020CB
  • 121125Z 18011KT 150V210 9999 -SHRA FEW008 04/03 Q0998 NOSIG
  • 121055Z 19012KT 160V230 9999 -SHRA FEW008 FEW021CB BKN030 04/03 Q0998 TEMPO 6000
  • 121025Z 21017KT 8000 -SHRA FEW008 FEW021CB SCT030 04/03 Q0998 TEMPO 4500 SHRA

TAF AMD TAF EHAM
Valido dal 12 a 13 ore il 13 a 18 ore UTC


121316Z 1213/1318 21015KT 9999 SCT030
TEMPO 1212/1214 23017G27KT 6000 SHRA SCT025CB BKN025
PROB30
TEMPO 1212/1214 4000 TSRAGS BKN018 SCT025CB
TEMPO 1220/1301 21015G25KT 6000 RA SHRA BKN010 FEW020CB
BECMG 1301/1304 22010KT
TEMPO 1301/1316 28015G25KT 6000 SHRA SCT020CB
PROB30
TEMPO 1301/1314 4000 SHRAGS
BECMG 1307/1310 27012KT
BECMG 1315/1318 18006KT



MetMap, La meteo Aeronautica in un colpo d'occhio ! - Copyright ORBIFLY Dicembre 2007 - Disclaimer

ORBIFLY MET'MAP TEAM :

Programmazione e sviluppo : Alexandra Zaïnal
Concezione e sviluppo : Baudouin d'Aumeries
Co-Programmazione e sviluppo : Marc-Olivier Méhu
Supporto tecnico e logistico : Manuel Goepfert
Aiuto per la traduzione : Arnaldo La Scala

Contatto : metmap@orbifly.com




FONTI E CREDITI :

   NOAA